createdAt,value
2022-11-05T00:01:59.670Z,30.60
2022-11-05T00:04:41.734Z,37.40
2022-11-05T00:07:27.088Z,27.20
2022-11-05T00:09:58.221Z,33.20
2022-11-05T00:12:40.256Z,34.60
2022-11-05T00:15:23.075Z,35.20
2022-11-05T00:17:51.306Z,35.60
2022-11-05T00:20:19.596Z,28.80
2022-11-05T00:23:01.648Z,35.80
2022-11-05T00:25:31.282Z,30.00
2022-11-05T00:28:02.547Z,30.00
2022-11-05T00:30:31.138Z,28.20
2022-11-05T00:33:02.135Z,32.20
2022-11-05T00:35:30.374Z,31.40
2022-11-05T00:37:58.939Z,32.20
2022-11-05T00:40:27.205Z,30.60
2022-11-05T00:43:11.214Z,32.40
2022-11-05T00:45:40.232Z,25.60
2022-11-05T00:48:22.265Z,29.60
2022-11-05T00:50:50.498Z,13.40
2022-11-05T00:53:18.715Z,20.20
2022-11-05T00:55:47.002Z,19.40
2022-11-05T00:58:17.785Z,21.60
2022-11-05T01:00:46.733Z,21.00
2022-11-05T01:03:16.139Z,21.00
2022-11-05T01:05:45.304Z,24.40
2022-11-05T01:08:13.701Z,21.60
2022-11-05T01:10:42.762Z,27.20
2022-11-05T01:13:13.281Z,20.40
2022-11-05T01:15:43.278Z,19.00
2022-11-05T01:18:11.483Z,27.00
2022-11-05T01:20:40.265Z,20.00
2022-11-05T01:23:13.227Z,24.80
2022-11-05T01:25:41.974Z,15.20
2022-11-05T01:28:10.795Z,20.40
2022-11-05T01:30:39.087Z,23.20
2022-11-05T01:33:09.206Z,18.20
2022-11-05T01:35:37.898Z,21.20
2022-11-05T01:38:06.156Z,24.60
2022-11-05T01:40:34.381Z,22.80
2022-11-05T01:43:02.607Z,16.00
2022-11-05T01:45:48.593Z,19.00
2022-11-05T01:48:18.792Z,19.80
2022-11-05T01:50:55.022Z,16.00
2022-11-05T01:53:26.482Z,21.80
2022-11-05T01:55:58.577Z,15.00
2022-11-05T01:58:30.065Z,20.40
2022-11-05T02:00:58.736Z,30.00
2022-11-05T02:03:28.311Z,17.80
2022-11-05T02:05:57.141Z,23.60
2022-11-05T02:08:43.735Z,27.40
2022-11-05T02:11:13.601Z,19.40
2022-11-05T02:13:42.087Z,18.40
2022-11-05T02:16:13.709Z,20.20
2022-11-05T02:18:48.728Z,21.00
2022-11-05T02:21:36.640Z,27.40
2022-11-05T02:24:26.469Z,26.40
2022-11-05T02:27:03.543Z,26.40
2022-11-05T02:29:48.634Z,23.80
2022-11-05T02:32:22.538Z,27.00
2022-11-05T02:34:53.392Z,29.80
2022-11-05T02:37:27.225Z,31.20
2022-11-05T02:39:58.212Z,20.60
2022-11-05T02:42:31.549Z,32.60
2022-11-05T02:45:03.456Z,27.20
2022-11-05T02:47:35.110Z,36.20
2022-11-05T02:50:08.044Z,24.00
2022-11-05T02:52:38.744Z,23.40
2022-11-05T02:55:08.600Z,33.40
2022-11-05T02:57:37.108Z,26.80
2022-11-05T03:00:07.290Z,30.20
2022-11-05T03:02:37.062Z,26.20
2022-11-05T03:05:05.618Z,15.00
2022-11-05T03:07:39.413Z,35.80
2022-11-05T03:10:26.524Z,26.20
2022-11-05T03:13:02.260Z,33.60
2022-11-05T03:15:40.219Z,30.20
2022-11-05T03:18:12.275Z,37.00
2022-11-05T03:20:43.331Z,32.60
2022-11-05T03:23:15.940Z,43.20
2022-11-05T03:25:46.347Z,34.60
2022-11-05T03:28:14.869Z,38.60
2022-11-05T03:30:43.114Z,41.60
2022-11-05T03:33:14.196Z,37.40
2022-11-05T03:35:45.008Z,31.20
2022-11-05T03:38:14.959Z,37.20
2022-11-05T03:40:43.170Z,36.00
2022-11-05T03:43:12.072Z,33.40
2022-11-05T03:45:43.560Z,30.80
2022-11-05T03:48:13.377Z,38.60
2022-11-05T03:50:43.327Z,36.40
2022-11-05T03:53:14.205Z,35.80
2022-11-05T03:55:45.807Z,34.00
2022-11-05T03:58:14.338Z,40.00
2022-11-05T04:00:42.892Z,30.80
2022-11-05T04:03:12.913Z,28.20
2022-11-05T04:05:41.359Z,37.80
2022-11-05T04:08:24.041Z,35.60
2022-11-05T04:11:06.369Z,32.60
2022-11-05T04:13:34.616Z,28.00
2022-11-05T04:16:16.639Z,30.00
2022-11-05T04:18:49.215Z,25.20
2022-11-05T04:21:31.715Z,23.60
2022-11-05T04:24:09.975Z,33.20
2022-11-05T04:26:39.159Z,26.80
2022-11-05T04:29:21.199Z,36.20
2022-11-05T04:31:50.458Z,26.20
2022-11-05T04:34:22.273Z,43.40
2022-11-05T04:36:50.684Z,31.20
2022-11-05T04:39:19.215Z,27.20
2022-11-05T04:41:48.868Z,29.20
2022-11-05T04:44:17.208Z,29.20
2022-11-05T04:46:45.464Z,32.20
2022-11-05T04:49:14.562Z,35.40
2022-11-05T04:51:44.318Z,30.20
2022-11-05T04:54:12.538Z,31.80
2022-11-05T04:56:40.796Z,34.20
2022-11-05T04:59:09.401Z,38.40
2022-11-05T05:01:37.715Z,24.00
2022-11-05T05:04:06.155Z,24.80
2022-11-05T05:06:35.327Z,27.20
2022-11-05T05:09:05.194Z,35.80
2022-11-05T05:11:33.412Z,27.20
2022-11-05T05:14:01.713Z,26.20
2022-11-05T05:16:29.940Z,22.80
2022-11-05T05:18:58.650Z,33.80
2022-11-05T05:21:39.101Z,26.00
2022-11-05T05:24:10.639Z,29.40
2022-11-05T05:26:39.017Z,26.80
2022-11-05T05:29:07.262Z,29.20
2022-11-05T05:31:35.518Z,26.20
2022-11-05T05:34:03.785Z,25.00
2022-11-05T05:36:32.102Z,32.20
2022-11-05T05:39:00.578Z,35.20
2022-11-05T05:41:30.183Z,18.00
2022-11-05T05:43:58.412Z,26.00
2022-11-05T05:46:26.638Z,32.60
2022-11-05T05:48:54.925Z,24.80
2022-11-05T05:51:23.148Z,36.60
2022-11-05T05:53:51.366Z,23.40
2022-11-05T05:56:20.746Z,32.40
2022-11-05T05:58:50.386Z,28.20
2022-11-05T06:01:19.983Z,28.80
2022-11-05T06:03:48.623Z,25.80
2022-11-05T06:06:19.871Z,23.60
2022-11-05T06:08:48.316Z,21.80
2022-11-05T06:11:16.555Z,19.20
2022-11-05T06:13:44.792Z,18.80
2022-11-05T06:16:14.362Z,27.40
2022-11-05T06:18:42.604Z,23.40
2022-11-05T06:21:11.416Z,26.80
2022-11-05T06:23:40.451Z,24.40
2022-11-05T06:26:10.338Z,26.80
2022-11-05T06:28:38.543Z,30.00
2022-11-05T06:31:06.895Z,31.00
2022-11-05T06:33:36.490Z,29.20
2022-11-05T06:36:05.442Z,29.00
2022-11-05T06:38:34.486Z,28.40
2022-11-05T06:41:07.260Z,21.40
2022-11-05T06:43:38.223Z,20.00
2022-11-05T06:46:06.577Z,29.80
2022-11-05T06:48:36.161Z,29.40
2022-11-05T06:51:04.619Z,23.60
2022-11-05T06:53:32.843Z,24.00
2022-11-05T06:56:03.798Z,31.40
2022-11-05T06:58:32.337Z,28.00
2022-11-05T07:01:03.141Z,16.00
2022-11-05T07:03:31.533Z,31.80
2022-11-05T07:06:01.349Z,28.40
2022-11-05T07:08:31.662Z,13.40
2022-11-05T07:11:00.263Z,29.60
2022-11-05T07:13:28.738Z,25.00
2022-11-05T07:15:57.006Z,23.60
2022-11-05T07:18:25.272Z,28.80
2022-11-05T07:20:53.784Z,20.80
2022-11-05T07:23:23.368Z,26.20
2022-11-05T07:25:51.622Z,33.20
2022-11-05T07:28:20.241Z,30.20
2022-11-05T07:30:49.265Z,23.20
2022-11-05T07:33:17.528Z,29.00
2022-11-05T07:35:45.729Z,22.20
2022-11-05T07:38:13.977Z,30.80
2022-11-05T07:40:43.597Z,31.40
2022-11-05T07:43:12.137Z,23.60
2022-11-05T07:45:40.614Z,29.00
2022-11-05T07:48:08.845Z,33.00
2022-11-05T07:50:37.708Z,37.80
2022-11-05T07:53:06.682Z,24.00
2022-11-05T07:55:35.349Z,18.60
2022-11-05T07:58:04.967Z,27.80
2022-11-05T08:00:33.370Z,29.60
2022-11-05T08:03:07.290Z,36.00
2022-11-05T08:05:37.922Z,28.80
2022-11-05T08:08:06.627Z,29.00
2022-11-05T08:10:35.559Z,31.80
2022-11-05T08:13:05.661Z,28.60
2022-11-05T08:15:33.942Z,26.00
2022-11-05T08:18:03.283Z,22.40
2022-11-05T08:20:31.544Z,28.60
2022-11-05T08:22:59.826Z,23.60
2022-11-05T08:25:28.119Z,30.60
2022-11-05T08:27:57.103Z,30.60
2022-11-05T08:30:26.837Z,29.40
2022-11-05T08:32:58.085Z,27.40
2022-11-05T08:35:26.353Z,37.40
2022-11-05T08:37:58.763Z,34.80
2022-11-05T08:40:27.209Z,36.00
2022-11-05T08:42:57.695Z,33.40
2022-11-05T08:45:27.391Z,23.40
2022-11-05T08:48:00.671Z,30.00
2022-11-05T08:50:28.974Z,42.60
2022-11-05T08:52:57.514Z,41.20
2022-11-05T08:55:25.774Z,37.60
2022-11-05T08:57:57.219Z,38.40
2022-11-05T09:00:26.914Z,30.40
2022-11-05T09:02:55.176Z,33.60
2022-11-05T09:05:23.418Z,39.80
2022-11-05T09:07:55.266Z,37.40
2022-11-05T09:10:28.754Z,37.60
2022-11-05T09:12:57.118Z,35.80
2022-11-05T09:15:26.766Z,40.20
2022-11-05T09:17:55.516Z,33.60
2022-11-05T09:20:23.989Z,40.80
2022-11-05T09:22:52.345Z,35.20
2022-11-05T09:25:20.632Z,39.00
2022-11-05T09:27:48.917Z,26.20
2022-11-05T09:30:17.452Z,26.80
2022-11-05T09:32:47.164Z,30.80
2022-11-05T09:35:15.478Z,34.80
2022-11-05T09:37:43.723Z,39.40
2022-11-05T09:40:13.118Z,25.60
2022-11-05T09:42:42.778Z,27.00
2022-11-05T09:45:14.264Z,32.40
2022-11-05T09:47:43.971Z,31.60
2022-11-05T09:50:16.970Z,40.40
2022-11-05T09:52:45.207Z,28.00
2022-11-05T09:55:24.971Z,28.80
2022-11-05T09:57:54.365Z,30.00
2022-11-05T10:00:22.759Z,32.80
2022-11-05T10:02:52.821Z,31.60
2022-11-05T10:05:22.560Z,28.80
2022-11-05T10:07:52.281Z,17.80
2022-11-05T10:10:34.139Z,31.80
2022-11-05T10:13:07.836Z,12.20
2022-11-05T10:15:39.273Z,18.40
2022-11-05T10:18:15.181Z,13.20
2022-11-05T10:20:44.969Z,17.80
2022-11-05T10:23:14.723Z,12.00
2022-11-05T10:25:45.131Z,16.00
2022-11-05T10:28:17.354Z,20.00
2022-11-05T10:30:45.961Z,17.20
2022-11-05T10:33:15.511Z,19.00
2022-11-05T10:35:48.953Z,21.80
2022-11-05T10:38:17.167Z,22.40
2022-11-05T10:40:50.608Z,16.80
2022-11-05T10:43:19.787Z,18.40
2022-11-05T10:45:51.937Z,22.00
2022-11-05T10:48:29.021Z,24.20
2022-11-05T10:50:58.679Z,22.60
2022-11-05T10:53:29.187Z,16.00
2022-11-05T10:56:01.703Z,16.20
2022-11-05T10:58:30.736Z,32.00
2022-11-05T11:01:04.261Z,18.20
2022-11-05T11:03:35.859Z,16.00
2022-11-05T11:06:08.179Z,22.40
2022-11-05T11:08:37.059Z,18.80
2022-11-05T11:11:07.435Z,21.20
2022-11-05T11:13:50.589Z,24.40
2022-11-05T11:16:21.719Z,24.20
2022-11-05T11:18:54.761Z,23.20
2022-11-05T11:21:24.608Z,19.00
2022-11-05T11:23:56.991Z,16.80
2022-11-05T11:26:30.183Z,19.00
2022-11-05T11:28:59.716Z,15.80
2022-11-05T11:31:28.616Z,20.40
2022-11-05T11:33:58.877Z,18.00
2022-11-05T11:36:33.192Z,20.80
2022-11-05T11:39:05.755Z,16.00
2022-11-05T11:41:36.560Z,15.40
2022-11-05T11:44:09.095Z,23.00
2022-11-05T11:46:37.300Z,17.00
2022-11-05T11:49:05.598Z,14.80
2022-11-05T11:51:40.811Z,24.20
2022-11-05T11:54:20.204Z,18.00
2022-11-05T11:56:49.123Z,22.00
2022-11-05T11:59:35.381Z,15.80
2022-11-05T12:02:24.283Z,14.20
2022-11-05T12:05:03.638Z,17.60
2022-11-05T12:07:40.242Z,17.60
2022-11-05T12:10:41.407Z,17.80
2022-11-05T12:13:27.296Z,15.80
2022-11-05T12:15:56.440Z,13.40
2022-11-05T12:18:28.723Z,27.40
2022-11-05T12:21:06.601Z,19.80
2022-11-05T12:23:46.958Z,17.80
2022-11-05T12:26:19.995Z,17.20
2022-11-05T12:29:19.708Z,20.00
2022-11-05T12:31:48.741Z,14.80
2022-11-05T12:34:28.749Z,12.80
2022-11-05T12:37:05.814Z,18.20
2022-11-05T12:39:44.865Z,15.40
2022-11-05T12:42:19.995Z,7.00
2022-11-05T12:44:56.701Z,12.00
2022-11-05T12:47:34.827Z,15.20
2022-11-05T12:50:09.480Z,14.60
2022-11-05T12:52:59.781Z,12.20
2022-11-05T12:55:37.614Z,12.20
2022-11-05T12:58:11.634Z,14.80
2022-11-05T13:00:39.885Z,12.20
2022-11-05T13:03:21.680Z,12.40
2022-11-05T13:05:50.894Z,12.20
2022-11-05T13:08:22.742Z,10.00
2022-11-05T13:10:55.352Z,10.40
2022-11-05T13:13:27.841Z,14.20
2022-11-05T13:15:57.803Z,8.20
2022-11-05T13:18:29.178Z,12.60
2022-11-05T13:20:57.439Z,9.20
2022-11-05T13:23:31.009Z,20.80
2022-11-05T13:26:03.439Z,10.00
2022-11-05T13:28:37.121Z,8.40
2022-11-05T13:31:06.705Z,13.40
2022-11-05T13:33:36.459Z,8.60
2022-11-05T13:36:20.815Z,10.80
2022-11-05T13:39:03.664Z,9.40
2022-11-05T13:41:44.201Z,10.40
2022-11-05T13:44:22.811Z,7.40
2022-11-05T13:47:02.162Z,13.00
2022-11-05T13:49:41.166Z,12.00
2022-11-05T13:52:21.018Z,10.00
2022-11-05T13:55:04.214Z,11.20
2022-11-05T13:57:49.915Z,10.80
2022-11-05T14:00:19.615Z,9.40
2022-11-05T14:02:50.154Z,11.20
2022-11-05T14:05:24.486Z,7.00
2022-11-05T14:07:53.014Z,9.80
2022-11-05T14:10:31.428Z,9.40
2022-11-05T14:13:01.845Z,5.00
2022-11-05T14:15:31.092Z,7.00
2022-11-05T14:18:00.683Z,6.80
2022-11-05T14:20:40.707Z,7.00
2022-11-05T14:23:40.722Z,6.20
2022-11-05T14:26:17.125Z,8.20
2022-11-05T14:28:52.599Z,7.80
2022-11-05T14:31:41.006Z,11.20
2022-11-05T14:34:22.598Z,8.00
2022-11-05T14:37:07.155Z,4.80
2022-11-05T14:39:45.048Z,5.80
2022-11-05T14:42:20.842Z,5.60
2022-11-05T14:45:02.026Z,7.00
2022-11-05T14:47:32.189Z,4.00
2022-11-05T14:50:03.200Z,5.60
2022-11-05T14:52:31.458Z,4.40
2022-11-05T14:55:00.039Z,8.20
2022-11-05T14:57:57.822Z,6.60
2022-11-05T15:00:44.537Z,7.20
2022-11-05T15:03:32.980Z,4.40
2022-11-05T15:06:07.071Z,2.20
2022-11-05T15:08:38.801Z,6.40
2022-11-05T15:11:13.184Z,7.80
2022-11-05T15:13:49.265Z,5.40
2022-11-05T15:16:21.355Z,6.20
2022-11-05T15:18:49.912Z,6.40
2022-11-05T15:21:18.789Z,6.00
2022-11-05T15:23:48.055Z,4.00
2022-11-05T15:26:19.720Z,6.60
2022-11-05T15:28:48.529Z,8.00
2022-11-05T15:31:26.964Z,3.60
2022-11-05T15:34:10.953Z,7.60
2022-11-05T15:36:39.261Z,5.20
2022-11-05T15:39:30.318Z,6.60
2022-11-05T15:41:59.924Z,4.00
2022-11-05T15:44:29.555Z,3.80
2022-11-05T15:47:14.447Z,6.20
2022-11-05T15:49:43.718Z,6.00
2022-11-05T15:52:13.927Z,6.00
2022-11-05T15:54:42.363Z,9.20
2022-11-05T15:57:20.770Z,8.80
2022-11-05T15:59:49.042Z,6.60
2022-11-05T16:02:29.030Z,6.20
2022-11-05T16:04:57.642Z,1.00
2022-11-05T16:07:25.934Z,4.20
2022-11-05T16:09:56.793Z,6.40
2022-11-05T16:12:29.591Z,9.40
2022-11-05T16:14:59.196Z,8.60
2022-11-05T16:17:29.689Z,10.20
2022-11-05T16:19:58.033Z,16.00
2022-11-05T16:22:26.300Z,4.00
2022-11-05T16:24:54.522Z,8.20
2022-11-05T16:27:23.148Z,7.40
2022-11-05T16:29:53.213Z,9.00
2022-11-05T16:32:29.896Z,5.60
2022-11-05T16:35:01.441Z,10.60
2022-11-05T16:37:39.989Z,6.60
2022-11-05T16:40:14.316Z,10.80
2022-11-05T16:42:42.623Z,7.80
2022-11-05T16:45:13.994Z,6.80
2022-11-05T16:47:42.828Z,4.40
2022-11-05T16:50:16.553Z,5.60
2022-11-05T16:52:45.919Z,7.00
2022-11-05T16:55:14.355Z,7.00
2022-11-05T16:57:43.456Z,3.80
2022-11-05T17:00:12.994Z,7.40
2022-11-05T17:02:41.439Z,9.60
2022-11-05T17:05:17.655Z,1.00
2022-11-05T17:07:46.298Z,4.40
2022-11-05T17:10:14.557Z,7.60
2022-11-05T17:12:43.806Z,8.60
2022-11-05T17:15:19.908Z,6.80
2022-11-05T17:17:48.294Z,6.00
2022-11-05T17:20:24.913Z,8.80
2022-11-05T17:22:53.117Z,6.40
2022-11-05T17:25:21.537Z,10.00
2022-11-05T17:27:50.404Z,12.40
2022-11-05T17:30:18.726Z,17.00
2022-11-05T17:32:47.024Z,9.80
2022-11-05T17:35:15.361Z,10.40
2022-11-05T17:37:44.957Z,9.00
2022-11-05T17:40:15.327Z,12.60
2022-11-05T17:42:44.505Z,13.20
2022-11-05T17:45:13.457Z,9.00
2022-11-05T17:47:41.905Z,10.00
2022-11-05T17:50:11.161Z,4.00
2022-11-05T17:52:39.689Z,0.40
2022-11-05T17:55:16.758Z,16.20
2022-11-05T17:57:46.438Z,9.60
2022-11-05T18:00:15.486Z,10.20
2022-11-05T18:02:44.324Z,9.00
2022-11-05T18:05:13.032Z,9.00
2022-11-05T18:07:41.403Z,6.00
2022-11-05T18:10:11.455Z,7.00
2022-11-05T18:12:39.781Z,9.80
2022-11-05T18:15:26.409Z,8.20
2022-11-05T18:17:54.665Z,7.80
2022-11-05T18:20:22.927Z,10.20
2022-11-05T18:22:51.465Z,11.60
2022-11-05T18:25:21.322Z,9.60
2022-11-05T18:27:49.654Z,9.00
2022-11-05T18:30:17.923Z,9.60
2022-11-05T18:32:47.900Z,10.00
2022-11-05T18:35:16.150Z,11.60
2022-11-05T18:37:44.355Z,11.00
2022-11-05T18:40:13.048Z,7.40
2022-11-05T18:42:43.280Z,10.00
2022-11-05T18:45:12.206Z,11.20
2022-11-05T18:47:40.441Z,9.40
2022-11-05T18:50:09.496Z,9.80
2022-11-05T18:52:37.759Z,13.80
2022-11-05T18:55:06.621Z,11.60
2022-11-05T18:57:34.992Z,13.40
2022-11-05T19:00:05.205Z,15.20
2022-11-05T19:02:33.848Z,12.20
2022-11-05T19:07:50.555Z,12.60
2022-11-05T19:10:18.842Z,10.40
2022-11-05T19:12:47.082Z,6.40
2022-11-05T19:15:16.726Z,15.00
2022-11-05T19:17:45.181Z,9.80
2022-11-05T19:20:13.590Z,13.00
2022-11-05T19:22:41.890Z,12.80
2022-11-05T19:25:10.164Z,15.40
2022-11-05T19:27:38.860Z,15.40
2022-11-05T19:30:07.616Z,12.60
2022-11-05T19:32:37.332Z,9.80
2022-11-05T19:35:06.036Z,12.00
2022-11-05T19:37:34.251Z,12.60
2022-11-05T19:40:02.457Z,10.60
2022-11-05T19:42:30.985Z,9.80
2022-11-05T19:45:16.640Z,9.80
2022-11-05T19:47:48.754Z,10.60
2022-11-05T19:50:16.982Z,18.00
2022-11-05T19:52:46.286Z,13.00
2022-11-05T19:55:15.467Z,13.80
2022-11-05T19:57:43.911Z,16.80
2022-11-05T20:00:13.035Z,14.60
2022-11-05T20:02:43.725Z,11.40
2022-11-05T20:05:13.406Z,10.80
2022-11-05T20:07:42.515Z,15.00
2022-11-05T20:10:11.247Z,10.00
2022-11-05T20:12:40.346Z,15.80
2022-11-05T20:15:09.344Z,12.40
2022-11-05T20:17:39.412Z,15.20
2022-11-05T20:20:08.714Z,17.20
2022-11-05T20:22:38.605Z,16.80
2022-11-05T20:25:07.465Z,14.00
2022-11-05T20:27:35.705Z,15.40
2022-11-05T20:30:03.948Z,21.20
2022-11-05T20:32:32.621Z,12.00
2022-11-05T20:35:01.377Z,15.80
2022-11-05T20:37:29.601Z,12.60
2022-11-05T20:39:59.631Z,15.00
2022-11-05T20:42:27.871Z,19.80
2022-11-05T20:44:56.074Z,22.40
2022-11-05T20:47:24.604Z,19.80
2022-11-05T20:49:52.873Z,20.40
2022-11-05T20:52:21.085Z,23.20
2022-11-05T20:54:49.546Z,9.80
2022-11-05T20:57:19.161Z,18.40
2022-11-05T20:59:47.373Z,10.00
2022-11-05T21:02:15.705Z,18.80
2022-11-05T21:04:44.013Z,12.80
2022-11-05T21:07:12.215Z,13.20
2022-11-05T21:09:40.712Z,8.60
2022-11-05T21:12:12.092Z,12.80
2022-11-05T21:14:42.876Z,19.00
2022-11-05T21:17:12.148Z,17.20
2022-11-05T21:19:40.697Z,16.20
2022-11-05T21:22:08.977Z,15.00
2022-11-05T21:24:40.880Z,10.00
2022-11-05T21:27:14.150Z,15.00
2022-11-05T21:29:43.874Z,20.20
2022-11-05T21:32:12.102Z,18.60
2022-11-05T21:34:40.357Z,18.60
2022-11-05T21:37:08.585Z,9.80
2022-11-05T21:39:37.142Z,15.00
2022-11-05T21:42:05.475Z,14.60
2022-11-05T21:44:33.739Z,13.80
2022-11-05T21:47:04.649Z,15.00
2022-11-05T21:49:34.745Z,15.00
2022-11-05T21:52:16.762Z,12.40
2022-11-05T21:54:59.073Z,11.00
2022-11-05T21:57:41.089Z,12.80
2022-11-05T22:00:10.914Z,15.60
2022-11-05T22:02:40.879Z,12.00
2022-11-05T22:05:09.339Z,13.40
2022-11-05T22:07:38.421Z,15.20
2022-11-05T22:10:13.165Z,12.80
2022-11-05T22:12:44.377Z,13.80
2022-11-05T22:15:12.713Z,12.80
2022-11-05T22:17:46.580Z,16.00
2022-11-05T22:20:16.638Z,12.80
2022-11-05T22:22:44.983Z,9.80
2022-11-05T22:25:21.532Z,15.40
2022-11-05T22:27:52.165Z,19.20
2022-11-05T22:30:24.508Z,15.20
2022-11-05T22:32:54.154Z,8.60
2022-11-05T22:35:25.600Z,12.20
2022-11-05T22:37:53.819Z,6.20
2022-11-05T22:40:24.024Z,10.20
2022-11-05T22:42:52.480Z,15.00
2022-11-05T22:45:20.791Z,10.00
2022-11-05T22:47:49.069Z,11.60
2022-11-05T22:50:18.691Z,13.40
2022-11-05T22:52:46.920Z,15.00
2022-11-05T22:55:15.222Z,10.20
2022-11-05T22:57:43.905Z,18.80
2022-11-05T23:00:15.839Z,14.20
2022-11-05T23:02:44.271Z,15.00
2022-11-05T23:05:12.895Z,16.00
2022-11-05T23:07:56.294Z,10.00
2022-11-05T23:10:38.699Z,14.40
2022-11-05T23:13:07.839Z,19.20
2022-11-05T23:15:49.853Z,17.20
2022-11-05T23:18:31.873Z,6.40
2022-11-05T23:21:14.738Z,15.00
2022-11-05T23:24:00.351Z,12.00
2022-11-05T23:26:42.373Z,6.40
2022-11-05T23:29:10.864Z,16.80
2022-11-05T23:31:52.882Z,13.60
2022-11-05T23:34:21.117Z,10.00
2022-11-05T23:37:03.158Z,18.00
2022-11-05T23:39:34.016Z,12.00
2022-11-05T23:42:17.762Z,12.60
2022-11-05T23:44:59.801Z,12.40
2022-11-05T23:47:42.072Z,12.20
2022-11-05T23:50:10.476Z,12.20
2022-11-05T23:52:38.961Z,9.40
2022-11-05T23:55:09.035Z,17.20
2022-11-05T23:57:38.206Z,12.60
